createdAt,value
2023-03-12T00:02:03.778Z,0.40
2023-03-12T00:04:31.905Z,0.31
2023-03-12T00:07:01.102Z,0.26
2023-03-12T00:09:28.438Z,0.22
2023-03-12T00:11:55.358Z,0.24
2023-03-12T00:14:22.542Z,0.17
2023-03-12T00:16:49.433Z,0.12
2023-03-12T00:19:16.624Z,0.06
2023-03-12T00:21:43.468Z,-0.09
2023-03-12T00:24:10.747Z,-0.23
2023-03-12T00:26:37.787Z,-0.36
2023-03-12T00:29:05.160Z,-0.39
2023-03-12T00:31:34.535Z,-0.38
2023-03-12T00:34:04.706Z,-0.42
2023-03-12T00:36:32.770Z,-0.42
2023-03-12T00:39:00.239Z,-0.51
2023-03-12T00:41:27.785Z,-0.61
2023-03-12T00:43:55.143Z,-0.71
2023-03-12T00:46:22.375Z,-0.83
2023-03-12T00:48:52.844Z,-0.93
2023-03-12T00:51:20.081Z,-1.02
2023-03-12T00:53:47.565Z,-1.07
2023-03-12T00:56:14.600Z,-1.13
2023-03-12T00:58:42.928Z,-1.18
2023-03-12T01:01:11.108Z,-1.27
2023-03-12T01:03:41.170Z,-1.33
2023-03-12T01:06:08.177Z,-1.39
2023-03-12T01:08:35.458Z,-1.41
2023-03-12T01:11:02.767Z,-1.45
2023-03-12T01:13:30.037Z,-1.46
2023-03-12T01:15:57.955Z,-1.51
2023-03-12T01:18:25.262Z,-1.55
2023-03-12T01:20:52.140Z,-1.39
2023-03-12T01:23:19.470Z,-1.26
2023-03-12T01:25:47.570Z,-1.11
2023-03-12T01:28:14.719Z,-1.05
2023-03-12T01:30:41.655Z,-0.77
2023-03-12T01:33:08.928Z,-0.72
2023-03-12T01:35:37.662Z,-0.62
2023-03-12T01:38:06.022Z,-0.43
2023-03-12T01:40:34.155Z,-0.20
2023-03-12T01:43:22.339Z,-0.22
2023-03-12T01:46:05.165Z,-0.07
2023-03-12T01:48:39.590Z,0.12
2023-03-12T01:51:09.171Z,0.17
2023-03-12T01:53:37.979Z,0.16
2023-03-12T01:56:05.229Z,0.07
2023-03-12T01:58:35.414Z,-0.04
2023-03-12T02:01:04.798Z,-0.21
2023-03-12T02:03:33.147Z,-0.35
2023-03-12T02:06:06.947Z,-0.50
2023-03-12T02:08:37.016Z,-0.65
2023-03-12T02:11:04.074Z,-0.71
2023-03-12T02:13:31.482Z,-0.78
2023-03-12T02:15:58.634Z,-0.88
2023-03-12T02:18:25.988Z,-0.94
2023-03-12T02:20:59.192Z,-0.92
2023-03-12T02:23:36.069Z,-0.91
2023-03-12T02:26:07.933Z,-0.93
2023-03-12T02:28:44.032Z,-0.94
2023-03-12T02:31:16.474Z,-0.93
2023-03-12T02:33:43.895Z,-0.92
2023-03-12T02:36:10.971Z,-0.95
2023-03-12T02:38:46.593Z,-0.98
2023-03-12T02:41:13.679Z,-1.02
2023-03-12T02:43:42.547Z,-1.08
2023-03-12T02:46:09.831Z,-1.15
2023-03-12T02:48:37.063Z,-1.26
2023-03-12T02:51:06.367Z,-1.28
2023-03-12T02:53:33.968Z,-1.33
2023-03-12T02:56:01.153Z,-1.44
2023-03-12T02:58:28.989Z,-1.57
2023-03-12T03:00:55.949Z,-1.64
2023-03-12T03:03:23.315Z,-1.73
2023-03-12T03:05:50.365Z,-1.82
2023-03-12T03:08:17.806Z,-1.86
2023-03-12T03:10:44.767Z,-1.88
2023-03-12T03:13:14.257Z,-1.83
2023-03-12T03:15:41.251Z,-1.90
2023-03-12T03:18:08.566Z,-1.89
2023-03-12T03:20:35.483Z,-1.91
2023-03-12T03:23:02.875Z,-1.92
2023-03-12T03:25:30.776Z,-1.96
2023-03-12T03:27:58.013Z,-2.01
2023-03-12T03:30:25.009Z,-2.05
2023-03-12T03:32:53.565Z,-2.11
2023-03-12T03:35:22.177Z,-2.18
2023-03-12T03:37:49.536Z,-2.16
2023-03-12T03:40:16.996Z,-2.14
2023-03-12T03:42:44.245Z,-2.10
2023-03-12T03:45:13.663Z,-2.07
2023-03-12T03:47:48.921Z,-2.07
2023-03-12T03:50:16.068Z,-2.07
2023-03-12T03:52:43.312Z,-2.07
2023-03-12T03:55:10.680Z,-2.00
2023-03-12T03:57:38.814Z,-2.01
2023-03-12T04:00:09.910Z,-2.00
2023-03-12T04:02:40.805Z,-1.97
2023-03-12T04:05:10.551Z,-1.97
2023-03-12T04:07:38.131Z,-1.94
2023-03-12T04:10:07.386Z,-1.93
2023-03-12T04:12:34.750Z,-1.96
2023-03-12T04:15:02.312Z,-2.04
2023-03-12T04:17:29.499Z,-2.11
2023-03-12T04:19:57.265Z,-2.22
2023-03-12T04:22:25.312Z,-2.33
2023-03-12T04:24:54.753Z,-2.40
2023-03-12T04:27:22.010Z,-2.45
2023-03-12T04:29:49.158Z,-2.47
2023-03-12T04:32:17.039Z,-2.51
2023-03-12T04:34:44.168Z,-2.57
2023-03-12T04:37:15.623Z,-2.56
2023-03-12T04:39:46.457Z,-2.62
2023-03-12T04:42:14.569Z,-2.67
2023-03-12T04:44:43.772Z,-2.69
2023-03-12T04:47:11.131Z,-2.71
2023-03-12T04:49:40.708Z,-2.77
2023-03-12T04:52:08.219Z,-2.78
2023-03-12T04:54:37.508Z,-2.79
2023-03-12T04:57:05.999Z,-2.75
2023-03-12T04:59:35.809Z,-2.79
2023-03-12T05:02:03.608Z,-2.80
2023-03-12T05:04:33.224Z,-2.82
2023-03-12T05:07:00.876Z,-2.82
2023-03-12T05:09:32.904Z,-2.81
2023-03-12T05:12:00.526Z,-2.80
2023-03-12T05:14:27.732Z,-2.79
2023-03-12T05:16:55.106Z,-2.78
2023-03-12T05:19:22.357Z,-2.77
2023-03-12T05:21:49.739Z,-2.75
2023-03-12T05:24:16.872Z,-2.67
2023-03-12T05:26:44.251Z,-2.51
2023-03-12T05:29:15.406Z,-2.29
2023-03-12T05:31:45.219Z,-2.08
2023-03-12T05:34:13.591Z,-1.91
2023-03-12T05:36:43.601Z,-1.78
2023-03-12T05:39:11.887Z,-1.64
2023-03-12T05:41:40.058Z,-1.53
2023-03-12T05:44:13.766Z,-1.43
2023-03-12T05:46:43.585Z,-1.39
2023-03-12T05:49:10.944Z,-1.37
2023-03-12T05:51:38.293Z,-1.28
2023-03-12T05:54:06.426Z,-1.22
2023-03-12T05:56:35.790Z,-0.90
2023-03-12T05:59:03.653Z,-0.27
2023-03-12T06:01:31.556Z,-0.34
2023-03-12T06:04:00.672Z,-0.38
2023-03-12T06:06:30.375Z,-0.21
2023-03-12T06:08:57.936Z,0.09
2023-03-12T06:11:28.433Z,0.15
2023-03-12T06:13:56.200Z,0.35
2023-03-12T06:16:27.998Z,1.12
2023-03-12T06:18:55.839Z,1.40
2023-03-12T06:21:29.916Z,1.43
2023-03-12T06:23:57.958Z,1.78
2023-03-12T06:26:32.036Z,1.79
2023-03-12T06:29:01.868Z,2.13
2023-03-12T06:31:29.227Z,3.40
2023-03-12T06:33:56.128Z,3.84
2023-03-12T06:36:24.098Z,3.22
2023-03-12T06:38:56.600Z,3.38
2023-03-12T06:41:24.219Z,4.91
2023-03-12T06:43:51.290Z,6.28
2023-03-12T06:46:21.736Z,6.13
2023-03-12T06:48:49.072Z,6.89
2023-03-12T06:51:16.977Z,8.09
2023-03-12T06:53:44.980Z,9.57
2023-03-12T06:56:13.172Z,10.37
2023-03-12T06:58:40.928Z,10.77
2023-03-12T07:01:08.699Z,11.83
2023-03-12T07:03:35.679Z,11.83
2023-03-12T07:06:03.460Z,12.08
2023-03-12T07:08:31.262Z,12.83
2023-03-12T07:11:01.792Z,12.97
2023-03-12T07:13:29.411Z,13.23
2023-03-12T07:15:56.719Z,12.34
2023-03-12T07:18:23.922Z,12.84
2023-03-12T07:20:52.148Z,13.08
2023-03-12T07:23:19.349Z,13.50
2023-03-12T07:25:49.586Z,13.42
2023-03-12T07:28:17.048Z,13.47
2023-03-12T07:30:50.342Z,13.84
2023-03-12T07:33:18.673Z,13.98
2023-03-12T07:35:51.540Z,14.41
2023-03-12T07:38:19.068Z,14.87
2023-03-12T07:40:50.671Z,14.33
2023-03-12T07:43:20.292Z,14.58
2023-03-12T07:45:48.185Z,15.01
2023-03-12T07:48:15.222Z,14.44
2023-03-12T07:50:42.645Z,14.36
2023-03-12T07:53:11.870Z,14.89
2023-03-12T07:55:39.288Z,14.68
2023-03-12T07:58:08.717Z,14.06
2023-03-12T08:00:36.063Z,13.77
2023-03-12T08:03:03.418Z,13.20
2023-03-12T08:05:33.301Z,12.94
2023-03-12T08:08:02.577Z,13.52
2023-03-12T08:10:30.016Z,13.93
2023-03-12T08:12:59.550Z,14.26
2023-03-12T08:15:29.330Z,13.96
2023-03-12T08:17:56.384Z,13.52
2023-03-12T08:20:23.743Z,12.23
2023-03-12T08:22:52.669Z,12.50
2023-03-12T08:25:21.182Z,12.74
2023-03-12T08:27:48.068Z,12.25
2023-03-12T08:30:15.565Z,12.24
2023-03-12T08:32:44.869Z,11.32
2023-03-12T08:35:14.768Z,11.42
2023-03-12T08:37:41.724Z,11.29
2023-03-12T08:40:13.316Z,10.17
2023-03-12T08:42:40.723Z,9.78
2023-03-12T08:45:09.315Z,9.94
2023-03-12T08:47:36.423Z,9.64
2023-03-12T08:50:03.731Z,9.62
2023-03-12T08:52:30.908Z,9.08
2023-03-12T08:54:58.070Z,8.74
2023-03-12T08:57:25.001Z,8.50
2023-03-12T08:59:52.556Z,8.55
2023-03-12T09:02:19.654Z,8.30
2023-03-12T09:04:50.470Z,8.77
2023-03-12T09:07:22.226Z,8.25
2023-03-12T09:09:49.481Z,8.20
2023-03-12T09:12:16.450Z,7.92
2023-03-12T09:15:02.531Z,8.07
2023-03-12T09:17:32.846Z,8.21
2023-03-12T09:20:00.355Z,8.29
2023-03-12T09:22:28.940Z,8.23
2023-03-12T09:24:56.375Z,8.54
2023-03-12T09:27:25.819Z,8.24
2023-03-12T09:30:02.740Z,8.24
2023-03-12T09:32:29.981Z,8.22
2023-03-12T09:34:57.333Z,8.28
2023-03-12T09:37:24.619Z,8.33
2023-03-12T09:39:52.390Z,8.47
2023-03-12T09:42:29.078Z,8.69
2023-03-12T09:44:59.827Z,8.65
2023-03-12T09:47:29.832Z,8.69
2023-03-12T09:50:05.708Z,8.92
2023-03-12T09:52:39.682Z,8.49
2023-03-12T09:55:15.769Z,8.14
2023-03-12T09:57:46.628Z,8.40
2023-03-12T10:00:20.824Z,8.35
2023-03-12T10:03:06.212Z,8.41
2023-03-12T10:05:33.471Z,8.56
2023-03-12T10:08:25.437Z,8.35
2023-03-12T10:11:16.448Z,8.38
2023-03-12T10:13:43.336Z,8.45
2023-03-12T10:16:10.611Z,8.14
2023-03-12T10:18:48.047Z,8.24
2023-03-12T10:21:15.816Z,8.01
2023-03-12T10:24:01.093Z,8.34
2023-03-12T10:26:32.278Z,8.50
2023-03-12T10:29:00.469Z,8.49
2023-03-12T10:31:27.846Z,8.71
2023-03-12T10:33:59.645Z,8.87
2023-03-12T10:36:30.327Z,8.68
2023-03-12T10:38:57.323Z,8.46
2023-03-12T10:41:29.426Z,8.54
2023-03-12T10:43:59.653Z,8.87
2023-03-12T10:46:46.865Z,8.92
2023-03-12T10:49:23.161Z,8.65
2023-03-12T10:51:59.783Z,8.76
2023-03-12T10:54:31.939Z,8.74
2023-03-12T10:56:59.306Z,8.86
2023-03-12T10:59:28.143Z,8.82
2023-03-12T11:01:55.914Z,8.73
2023-03-12T11:04:22.737Z,8.46
2023-03-12T11:07:04.703Z,8.49
2023-03-12T11:09:31.792Z,8.67
2023-03-12T11:11:58.973Z,8.52
2023-03-12T11:14:27.911Z,8.67
2023-03-12T11:16:55.988Z,8.64
2023-03-12T11:19:27.751Z,8.75
2023-03-12T11:22:02.476Z,8.81
2023-03-12T11:24:29.749Z,8.77
2023-03-12T11:27:02.260Z,8.98
2023-03-12T11:29:33.086Z,9.27
2023-03-12T11:32:00.518Z,9.36
2023-03-12T11:34:29.450Z,9.23
2023-03-12T11:37:15.305Z,9.51
2023-03-12T11:39:51.490Z,9.51
2023-03-12T11:42:18.621Z,9.35
2023-03-12T11:44:54.506Z,9.14
2023-03-12T11:47:32.751Z,9.24
2023-03-12T11:50:08.773Z,9.08
2023-03-12T11:52:39.405Z,9.28
2023-03-12T11:55:25.150Z,9.41
2023-03-12T11:57:59.607Z,9.48
2023-03-12T12:00:35.673Z,9.61
2023-03-12T12:03:22.700Z,9.66
2023-03-12T12:05:58.804Z,9.87
2023-03-12T12:08:31.723Z,9.97
2023-03-12T12:11:03.859Z,10.11
2023-03-12T12:13:49.982Z,10.41
2023-03-12T12:16:35.943Z,10.61
2023-03-12T12:19:20.286Z,10.75
2023-03-12T12:21:59.361Z,10.42
2023-03-12T12:24:29.892Z,9.94
2023-03-12T12:27:06.915Z,9.95
2023-03-12T12:29:53.063Z,9.84
2023-03-12T12:32:52.503Z,9.58
2023-03-12T12:35:26.452Z,9.46
2023-03-12T12:37:57.386Z,9.63
2023-03-12T12:40:31.281Z,9.42
2023-03-12T12:42:58.217Z,9.54
2023-03-12T12:45:26.725Z,9.63
2023-03-12T12:47:57.287Z,9.59
2023-03-12T12:50:26.351Z,9.60
2023-03-12T12:52:57.287Z,9.78
2023-03-12T12:55:47.712Z,10.13
2023-03-12T12:58:23.522Z,10.41
2023-03-12T13:00:59.254Z,10.58
2023-03-12T13:03:27.397Z,10.60
2023-03-12T13:05:56.544Z,10.49
2023-03-12T13:08:33.431Z,10.47
2023-03-12T13:11:17.163Z,10.35
2023-03-12T13:13:45.745Z,10.19
2023-03-12T13:16:29.156Z,10.27
2023-03-12T13:19:18.993Z,10.17
2023-03-12T13:21:58.660Z,10.18
2023-03-12T13:24:30.104Z,9.97
2023-03-12T13:26:57.814Z,9.88
2023-03-12T13:29:35.306Z,9.80
2023-03-12T13:32:03.769Z,9.81
2023-03-12T13:34:32.672Z,9.71
2023-03-12T13:37:01.859Z,9.70
2023-03-12T13:39:33.501Z,9.59
2023-03-12T13:42:01.789Z,9.55
2023-03-12T13:44:33.390Z,9.68
2023-03-12T13:47:05.590Z,9.47
2023-03-12T13:49:51.247Z,9.50
2023-03-12T13:52:25.098Z,9.52
2023-03-12T13:55:03.051Z,9.59
2023-03-12T13:58:00.847Z,9.67
2023-03-12T14:00:40.671Z,9.68
2023-03-12T14:03:14.684Z,9.56
2023-03-12T14:05:47.989Z,9.55
2023-03-12T14:08:22.372Z,9.40
2023-03-12T14:10:52.957Z,9.32
2023-03-12T14:13:29.613Z,9.25
2023-03-12T14:15:59.780Z,9.15
2023-03-12T14:18:28.625Z,9.13
2023-03-12T14:20:59.544Z,9.03
2023-03-12T14:23:40.102Z,9.04
2023-03-12T14:26:09.688Z,9.07
2023-03-12T14:28:42.196Z,9.02
2023-03-12T14:31:14.941Z,9.02
2023-03-12T14:33:58.626Z,8.99
2023-03-12T14:36:28.422Z,8.95
2023-03-12T14:39:14.927Z,8.94
2023-03-12T14:41:44.985Z,8.92
2023-03-12T14:44:24.589Z,8.89
2023-03-12T14:47:03.151Z,8.86
2023-03-12T14:49:31.695Z,8.93
2023-03-12T14:51:59.314Z,8.87
2023-03-12T14:54:28.256Z,8.89
2023-03-12T14:56:55.766Z,8.89
2023-03-12T14:59:25.388Z,8.84
2023-03-12T15:02:02.590Z,8.81
2023-03-12T15:04:34.350Z,8.81
2023-03-12T15:07:04.975Z,8.77
2023-03-12T15:09:35.151Z,8.82
2023-03-12T15:12:09.893Z,8.78
2023-03-12T15:14:42.153Z,8.75
2023-03-12T15:17:16.662Z,8.72
2023-03-12T15:19:48.012Z,8.68
2023-03-12T15:22:17.244Z,8.63
2023-03-12T15:24:45.402Z,8.50
2023-03-12T15:27:41.100Z,8.50
2023-03-12T15:30:26.078Z,8.43
2023-03-12T15:33:06.933Z,8.37
2023-03-12T15:35:35.842Z,8.35
2023-03-12T15:38:04.277Z,8.28
2023-03-12T15:40:32.979Z,8.27
2023-03-12T15:43:03.848Z,8.26
2023-03-12T15:45:41.098Z,8.26
2023-03-12T15:48:20.166Z,8.22
2023-03-12T15:50:50.997Z,8.19
2023-03-12T15:53:18.975Z,8.19
2023-03-12T15:56:00.921Z,8.16
2023-03-12T15:58:32.050Z,8.15
2023-03-12T16:01:07.127Z,8.14
2023-03-12T16:03:38.202Z,8.11
2023-03-12T16:06:11.028Z,8.11
2023-03-12T16:08:41.588Z,8.06
2023-03-12T16:11:17.606Z,8.01
2023-03-12T16:13:45.976Z,8.02
2023-03-12T16:16:14.650Z,7.99
2023-03-12T16:18:42.882Z,7.95
2023-03-12T16:21:11.034Z,7.91
2023-03-12T16:23:38.685Z,7.94
2023-03-12T16:26:06.902Z,7.92
2023-03-12T16:28:36.022Z,7.85
2023-03-12T16:31:04.038Z,7.84
2023-03-12T16:33:32.002Z,7.84
2023-03-12T16:36:00.192Z,7.81
2023-03-12T16:38:28.261Z,7.82
2023-03-12T16:40:57.023Z,7.79
2023-03-12T16:43:26.148Z,7.76
2023-03-12T16:45:54.619Z,7.77
2023-03-12T16:48:26.903Z,7.77
2023-03-12T16:50:57.974Z,7.72
2023-03-12T16:53:25.825Z,7.73
2023-03-12T16:55:53.911Z,7.64
2023-03-12T16:58:22.901Z,7.61
2023-03-12T17:00:52.316Z,7.59
2023-03-12T17:03:22.392Z,7.55
2023-03-12T17:05:50.610Z,7.58
2023-03-12T17:08:17.892Z,7.59
2023-03-12T17:10:45.536Z,7.58
2023-03-12T17:13:21.587Z,7.52
2023-03-12T17:15:50.431Z,7.49
2023-03-12T17:18:18.155Z,7.46
2023-03-12T17:20:46.652Z,7.47
2023-03-12T17:23:14.899Z,7.50
2023-03-12T17:25:45.168Z,7.54
2023-03-12T17:28:13.851Z,7.54
2023-03-12T17:30:45.886Z,7.51
2023-03-12T17:33:17.025Z,7.50
2023-03-12T17:35:46.000Z,7.48
2023-03-12T17:38:14.047Z,7.51
2023-03-12T17:40:43.248Z,7.52
2023-03-12T17:43:12.432Z,7.52
2023-03-12T17:45:43.788Z,7.52
2023-03-12T17:48:11.655Z,7.48
2023-03-12T17:50:39.461Z,7.47
2023-03-12T17:53:10.517Z,7.45
2023-03-12T17:55:39.374Z,7.43
2023-03-12T17:58:08.546Z,7.44
2023-03-12T18:00:36.985Z,7.43
2023-03-12T18:03:04.681Z,7.41
2023-03-12T18:05:33.036Z,7.41
2023-03-12T18:08:01.849Z,7.39
2023-03-12T18:10:30.025Z,7.37
2023-03-12T18:13:00.429Z,7.36
2023-03-12T18:15:28.943Z,7.34
2023-03-12T18:17:58.794Z,7.35
2023-03-12T18:20:37.758Z,7.35
2023-03-12T18:23:06.169Z,7.34
2023-03-12T18:25:35.405Z,7.32
2023-03-12T18:28:03.449Z,7.33
2023-03-12T18:30:31.599Z,7.38
2023-03-12T18:33:02.076Z,7.38
2023-03-12T18:35:33.644Z,7.37
2023-03-12T18:38:02.972Z,7.39
2023-03-12T18:40:33.454Z,7.40
2023-03-12T18:43:02.311Z,7.42
2023-03-12T18:45:30.764Z,7.43
2023-03-12T18:48:02.280Z,7.49
2023-03-12T18:50:33.720Z,7.48
2023-03-12T18:53:04.975Z,7.55
2023-03-12T18:55:33.256Z,7.55
2023-03-12T18:58:04.400Z,7.58
2023-03-12T19:00:32.673Z,7.55
2023-03-12T19:03:03.936Z,7.55
2023-03-12T19:05:33.416Z,7.60
2023-03-12T19:08:01.333Z,7.62
2023-03-12T19:10:29.571Z,7.60
2023-03-12T19:12:58.681Z,7.52
2023-03-12T19:15:27.141Z,7.53
2023-03-12T19:17:55.135Z,7.51
2023-03-12T19:20:23.149Z,7.52
2023-03-12T19:22:53.102Z,7.53
2023-03-12T19:25:20.864Z,7.56
2023-03-12T19:27:48.583Z,7.55
2023-03-12T19:30:16.748Z,7.52
2023-03-12T19:32:48.181Z,7.51
2023-03-12T19:35:16.939Z,7.49
2023-03-12T19:37:46.566Z,7.44
2023-03-12T19:40:15.911Z,7.40
2023-03-12T19:42:44.112Z,7.35
2023-03-12T19:45:12.674Z,7.33
2023-03-12T19:47:41.002Z,7.27
2023-03-12T19:50:11.287Z,7.23
2023-03-12T19:52:40.117Z,7.23
2023-03-12T19:55:09.591Z,7.23
2023-03-12T19:57:41.266Z,7.16
2023-03-12T20:00:15.622Z,7.08
2023-03-12T20:02:42.979Z,7.04
2023-03-12T20:05:11.655Z,7.03
2023-03-12T20:07:40.924Z,7.00
2023-03-12T20:10:12.583Z,6.96
2023-03-12T20:12:41.111Z,6.96
2023-03-12T20:15:11.766Z,6.95
2023-03-12T20:17:40.347Z,6.93
2023-03-12T20:20:09.844Z,6.94
2023-03-12T20:22:37.887Z,6.94
2023-03-12T20:25:07.718Z,6.92
2023-03-12T20:27:36.023Z,6.95
2023-03-12T20:30:07.480Z,6.95
2023-03-12T20:32:35.546Z,6.96
2023-03-12T20:35:06.576Z,6.94
2023-03-12T20:37:36.160Z,6.98
2023-03-12T20:40:05.758Z,6.96
2023-03-12T20:42:33.954Z,6.94
2023-03-12T20:45:02.432Z,6.99
2023-03-12T20:47:30.227Z,7.00
2023-03-12T20:49:58.486Z,7.02
2023-03-12T20:52:27.623Z,7.03
2023-03-12T20:54:58.167Z,7.09
2023-03-12T20:57:27.225Z,7.17
2023-03-12T20:59:55.418Z,7.15
2023-03-12T21:02:24.179Z,7.15
2023-03-12T21:04:55.909Z,7.14
2023-03-12T21:07:23.435Z,7.18
2023-03-12T21:09:51.510Z,7.20
2023-03-12T21:12:18.948Z,7.27
2023-03-12T21:14:47.049Z,7.31
2023-03-12T21:17:15.036Z,7.32
2023-03-12T21:19:43.257Z,7.29
2023-03-12T21:22:11.363Z,7.32
2023-03-12T21:24:38.856Z,7.30
2023-03-12T21:27:05.837Z,7.32
2023-03-12T21:29:33.353Z,7.32
2023-03-12T21:32:00.400Z,7.25
2023-03-12T21:34:29.509Z,7.12
2023-03-12T21:36:56.984Z,6.97
2023-03-12T21:39:24.220Z,6.85
2023-03-12T21:41:51.125Z,6.74
2023-03-12T21:44:18.472Z,6.58
2023-03-12T21:46:47.998Z,6.48
2023-03-12T21:49:18.265Z,6.48
2023-03-12T21:51:45.679Z,6.43
2023-03-12T21:54:13.209Z,6.35
2023-03-12T21:56:41.829Z,6.28
2023-03-12T21:59:09.097Z,6.24
2023-03-12T22:01:36.098Z,6.21
2023-03-12T22:04:03.586Z,6.20
2023-03-12T22:06:30.550Z,6.18
2023-03-12T22:08:57.803Z,6.20
2023-03-12T22:11:24.628Z,6.20
2023-03-12T22:13:52.050Z,6.22
2023-03-12T22:16:20.084Z,6.23
2023-03-12T22:18:47.461Z,6.28
2023-03-12T22:21:18.811Z,6.31
2023-03-12T22:23:51.172Z,6.36
2023-03-12T22:26:22.228Z,6.40
2023-03-12T22:28:51.040Z,6.47
2023-03-12T22:31:18.877Z,6.56
2023-03-12T22:33:46.228Z,6.58
2023-03-12T22:36:16.117Z,6.59
2023-03-12T22:38:43.950Z,6.64
2023-03-12T22:41:18.852Z,6.72
2023-03-12T22:43:49.380Z,6.81
2023-03-12T22:46:19.147Z,6.87
2023-03-12T22:48:47.775Z,6.92
2023-03-12T22:51:14.674Z,6.96
2023-03-12T22:53:41.975Z,6.99
2023-03-12T22:56:10.418Z,7.01
2023-03-12T22:58:38.038Z,7.05
2023-03-12T23:01:11.980Z,7.07
2023-03-12T23:03:40.229Z,7.12
2023-03-12T23:06:10.973Z,7.21
2023-03-12T23:08:38.304Z,7.28
2023-03-12T23:11:06.294Z,7.33
2023-03-12T23:13:34.787Z,7.35
2023-03-12T23:16:03.118Z,7.37
2023-03-12T23:18:30.730Z,7.43
2023-03-12T23:21:01.578Z,7.43
2023-03-12T23:23:29.270Z,7.43
2023-03-12T23:25:56.815Z,7.46
2023-03-12T23:28:24.580Z,7.46
2023-03-12T23:30:58.376Z,7.47
2023-03-12T23:33:26.003Z,7.50
2023-03-12T23:35:58.530Z,7.52
2023-03-12T23:38:26.573Z,7.54
2023-03-12T23:41:06.277Z,7.47
2023-03-12T23:43:33.728Z,7.49
2023-03-12T23:46:02.167Z,7.47
2023-03-12T23:48:30.417Z,7.47
2023-03-12T23:51:14.268Z,7.46
2023-03-12T23:53:42.700Z,7.43
2023-03-12T23:56:10.803Z,7.46
2023-03-12T23:58:38.244Z,7.47
